Time;durP1;ratioP1;P1;durP2;ratioP2;P2;SDS_P1;SDS_P2;PMS_P1;PMS_P2;Temp;Humidity;BMP_temperature;BMP_pressure;BME280_temperature;BME280_humidity;BME280_pressure;Samples;Min_cycle;Max_cycle;Signal;HPM_P1;HPM_P2
2021/07/22 00:02:15;;;;;;;17.55;11.35;;;;;;;;;;5007834;28;20277;-70
2021/07/22 00:04:40;;;;;;;21.83;11.35;;;;;;;;;;5008414;28;20033;-72
2021/07/22 00:07:06;;;;;;;17.23;10.82;;;;;;;;;;5010274;28;20140;-71
2021/07/22 00:09:31;;;;;;;20.27;12.68;;;;;;;;;;5006783;28;20112;-71
2021/07/22 00:11:56;;;;;;;19.50;11.23;;;;;;;;;;5014271;28;20028;-71
2021/07/22 00:14:21;;;;;;;20.42;11.35;;;;;;;;;;5015233;28;20630;-71
2021/07/22 00:16:46;;;;;;;20.70;12.02;;;;;;;;;;5012722;28;20049;-70
2021/07/22 00:19:12;;;;;;;20.63;11.50;;;;;;;;;;5014534;28;20018;-71
2021/07/22 00:21:37;;;;;;;20.90;11.60;;;;;;;;;;5011957;28;20080;-71
2021/07/22 00:24:03;;;;;;;21.67;12.05;;;;;;;;;;5017735;28;20060;-71
2021/07/22 00:26:28;;;;;;;20.65;11.90;;;;;;;;;;5019340;28;20112;-71
2021/07/22 00:28:53;;;;;;;18.33;11.60;;;;;;;;;;5013535;28;20104;-70
2021/07/22 00:31:18;;;;;;;19.65;11.60;;;;;;;;;;5014831;28;20395;-71
2021/07/22 00:33:43;;;;;;;19.30;11.52;;;;;;;;;;5011832;28;20041;-71
2021/07/22 00:36:09;;;;;;;19.77;11.38;;;;;;;;;;5020685;28;20117;-70
2021/07/22 00:38:34;;;;;;;19.67;11.10;;;;;;;;;;5012781;28;20493;-71
2021/07/22 00:40:59;;;;;;;17.67;11.63;;;;;;;;;;5014315;28;20033;-71
2021/07/22 00:43:25;;;;;;;16.73;11.23;;;;;;;;;;5027102;28;20141;-72
2021/07/22 00:45:50;;;;;;;20.63;12.00;;;;;;;;;;5012708;28;20172;-71
2021/07/22 00:48:15;;;;;;;19.52;11.50;;;;;;;;;;5016310;28;20049;-71
2021/07/22 00:50:40;;;;;;;19.45;11.63;;;;;;;;;;5025859;28;20275;-72
2021/07/22 00:53:05;;;;;;;23.02;11.75;;;;;;;;;;5012212;28;20064;-71
2021/07/22 00:55:31;;;;;;;17.03;11.10;;;;;;;;;;5017708;28;20661;-71
2021/07/22 00:57:56;;;;;;;18.75;11.45;;;;;;;;;;5018032;28;20287;-70
2021/07/22 01:00:21;;;;;;;18.13;11.00;;;;;;;;;;5015255;28;20021;-71
2021/07/22 01:02:46;;;;;;;18.88;10.52;;;;;;;;;;5015310;28;20077;-71
2021/07/22 01:05:11;;;;;;;20.25;11.60;;;;;;;;;;5016025;28;20074;-71
2021/07/22 01:07:37;;;;;;;18.88;11.40;;;;;;;;;;5009347;28;20536;-71
2021/07/22 01:10:03;;;;;;;19.33;11.35;;;;;;;;;;5015612;28;20028;-71
2021/07/22 01:12:28;;;;;;;19.10;12.13;;;;;;;;;;5012695;28;20026;-71
2021/07/22 01:14:53;;;;;;;17.80;11.50;;;;;;;;;;5017464;28;20034;-71
2021/07/22 01:17:24;;;;;;;18.48;11.52;;;;;;;;;;5017821;28;20283;-69
2021/07/22 01:19:49;;;;;;;19.73;11.00;;;;;;;;;;5017745;28;20034;-71
2021/07/22 01:22:14;;;;;;;18.83;12.05;;;;;;;;;;5020108;28;20116;-71
2021/07/22 01:24:40;;;;;;;19.50;11.52;;;;;;;;;;5014659;28;20029;-72
2021/07/22 01:27:06;;;;;;;19.07;12.03;;;;;;;;;;5012983;28;20060;-71
2021/07/22 01:29:31;;;;;;;19.20;11.48;;;;;;;;;;5017385;28;20324;-71
2021/07/22 01:31:56;;;;;;;17.83;10.75;;;;;;;;;;5007876;28;20390;-71
2021/07/22 01:34:21;;;;;;;20.27;11.43;;;;;;;;;;5014999;28;20033;-71
2021/07/22 01:36:46;;;;;;;19.83;12.20;;;;;;;;;;5030607;28;20248;-70
2021/07/22 01:39:11;;;;;;;18.33;11.30;;;;;;;;;;5010117;28;20281;-70
2021/07/22 01:41:38;;;;;;;18.93;11.53;;;;;;;;;;5021232;28;20336;-71
2021/07/22 01:44:03;;;;;;;22.98;10.90;;;;;;;;;;5014672;28;20355;-70
2021/07/22 01:46:28;;;;;;;17.98;10.82;;;;;;;;;;5015044;28;20434;-71
2021/07/22 01:48:53;;;;;;;18.80;10.93;;;;;;;;;;5014971;28;20481;-71
2021/07/22 01:51:19;;;;;;;19.67;11.18;;;;;;;;;;5009271;28;20068;-70
2021/07/22 01:53:44;;;;;;;20.48;11.35;;;;;;;;;;5010293;28;20082;-72
2021/07/22 01:56:10;;;;;;;19.57;11.33;;;;;;;;;;5014635;28;20397;-71
2021/07/22 01:58:35;;;;;;;20.98;11.75;;;;;;;;;;5010259;28;20273;-71
2021/07/22 02:01:03;;;;;;;20.75;11.85;;;;;;;;;;5015408;28;20017;-72
2021/07/22 02:03:28;;;;;;;16.63;11.00;;;;;;;;;;5017603;28;20068;-72
2021/07/22 02:05:53;;;;;;;18.70;11.50;;;;;;;;;;5012829;28;20057;-71
2021/07/22 02:08:18;;;;;;;17.40;10.57;;;;;;;;;;5011149;28;20092;-72
2021/07/22 02:10:44;;;;;;;21.10;10.75;;;;;;;;;;5018959;28;20280;-71
2021/07/22 02:13:09;;;;;;;19.98;11.98;;;;;;;;;;5015947;28;20497;-70
2021/07/22 02:15:34;;;;;;;20.15;11.95;;;;;;;;;;5009392;28;20048;-71
2021/07/22 02:17:59;;;;;;;19.08;11.65;;;;;;;;;;5010711;28;20022;-72
2021/07/22 02:20:25;;;;;;;18.50;11.25;;;;;;;;;;5010879;28;20120;-70
2021/07/22 02:22:50;;;;;;;19.35;11.88;;;;;;;;;;5029524;28;20029;-70
2021/07/22 02:25:15;;;;;;;19.48;11.95;;;;;;;;;;5015692;28;20127;-71
2021/07/22 02:27:40;;;;;;;19.60;12.05;;;;;;;;;;5020053;28;20411;-71
2021/07/22 02:30:06;;;;;;;21.83;12.38;;;;;;;;;;5017608;28;20069;-71
2021/07/22 02:32:31;;;;;;;19.20;11.98;;;;;;;;;;5013433;28;20032;-71
2021/07/22 02:34:56;;;;;;;23.33;12.35;;;;;;;;;;5009032;28;20026;-69
2021/07/22 02:37:21;;;;;;;19.95;12.00;;;;;;;;;;5017539;28;20036;-70
2021/07/22 02:39:46;;;;;;;20.38;12.20;;;;;;;;;;5014430;28;20024;-72
2021/07/22 02:42:12;;;;;;;19.52;11.77;;;;;;;;;;5020623;28;20563;-70
2021/07/22 02:44:39;;;;;;;23.88;11.98;;;;;;;;;;5010404;28;20076;-70
2021/07/22 02:47:07;;;;;;;19.30;12.00;;;;;;;;;;5019681;28;20087;-69
2021/07/22 02:49:32;;;;;;;19.77;11.25;;;;;;;;;;5021345;28;20033;-69
2021/07/22 02:51:57;;;;;;;18.77;10.85;;;;;;;;;;5006958;28;20036;-69
2021/07/22 02:54:22;;;;;;;21.17;11.80;;;;;;;;;;5010837;28;20033;-70
2021/07/22 02:56:47;;;;;;;18.60;11.45;;;;;;;;;;5010374;28;20288;-69
2021/07/22 02:59:12;;;;;;;20.25;11.80;;;;;;;;;;5014252;28;20402;-72
2021/07/22 03:01:39;;;;;;;20.37;12.17;;;;;;;;;;5008314;28;20014;-69
2021/07/22 03:04:04;;;;;;;18.67;10.85;;;;;;;;;;5009607;28;20305;-70
2021/07/22 03:06:29;;;;;;;17.07;10.87;;;;;;;;;;5018937;28;20017;-71
2021/07/22 03:08:55;;;;;;;20.73;12.15;;;;;;;;;;5011728;28;20307;-69
2021/07/22 03:11:20;;;;;;;21.55;11.68;;;;;;;;;;5014145;28;20021;-69
2021/07/22 03:13:45;;;;;;;18.23;10.98;;;;;;;;;;5014517;28;20036;-69
2021/07/22 03:16:10;;;;;;;18.40;11.27;;;;;;;;;;5021653;28;20185;-68
2021/07/22 03:18:35;;;;;;;20.27;11.57;;;;;;;;;;5018953;28;20087;-72
2021/07/22 03:21:01;;;;;;;19.65;10.77;;;;;;;;;;5009263;28;20017;-69
2021/07/22 03:23:26;;;;;;;18.25;11.27;;;;;;;;;;5011481;28;20053;-69
2021/07/22 03:25:52;;;;;;;21.38;11.68;;;;;;;;;;5015629;28;20407;-68
2021/07/22 03:28:17;;;;;;;17.10;10.52;;;;;;;;;;5008459;28;20022;-68
2021/07/22 03:30:42;;;;;;;17.17;10.48;;;;;;;;;;5008819;28;20330;-68
2021/07/22 03:33:07;;;;;;;17.37;10.50;;;;;;;;;;5008330;28;20018;-68
2021/07/22 03:35:33;;;;;;;16.60;10.25;;;;;;;;;;5011038;28;20261;-69
2021/07/22 03:38:01;;;;;;;15.83;10.27;;;;;;;;;;5013932;28;20064;-67
2021/07/22 03:40:27;;;;;;;17.83;10.38;;;;;;;;;;5010251;28;20283;-67
2021/07/22 03:42:54;;;;;;;19.42;10.07;;;;;;;;;;5013146;28;20058;-68
2021/07/22 03:45:19;;;;;;;19.48;11.60;;;;;;;;;;5008359;28;20081;-69
2021/07/22 03:47:44;;;;;;;18.57;11.00;;;;;;;;;;5009864;28;20545;-69
2021/07/22 03:50:09;;;;;;;18.45;11.02;;;;;;;;;;5005827;28;20291;-68
2021/07/22 03:52:34;;;;;;;17.70;10.73;;;;;;;;;;5010502;28;20026;-69
2021/07/22 03:54:59;;;;;;;18.33;11.23;;;;;;;;;;5009618;28;20038;-70
2021/07/22 03:57:25;;;;;;;17.23;10.80;;;;;;;;;;5007311;28;20034;-70
2021/07/22 03:59:50;;;;;;;19.17;11.63;;;;;;;;;;5008341;28;20091;-70
2021/07/22 04:02:15;;;;;;;19.55;12.13;;;;;;;;;;5006622;28;20041;-69
2021/07/22 04:04:40;;;;;;;18.67;11.85;;;;;;;;;;5010326;28;20057;-70
2021/07/22 04:07:05;;;;;;;20.08;11.85;;;;;;;;;;5015200;28;20022;-70
2021/07/22 04:09:31;;;;;;;19.48;11.25;;;;;;;;;;5011973;28;20108;-69
2021/07/22 04:11:56;;;;;;;20.58;12.50;;;;;;;;;;5015272;28;20033;-69
2021/07/22 04:14:21;;;;;;;20.37;12.33;;;;;;;;;;5008812;28;20037;-69
2021/07/22 04:16:46;;;;;;;19.50;11.90;;;;;;;;;;5009222;28;20296;-67
2021/07/22 04:19:11;;;;;;;20.77;11.57;;;;;;;;;;5007722;28;20640;-68
2021/07/22 04:21:36;;;;;;;19.00;11.70;;;;;;;;;;5008084;28;20384;-69
2021/07/22 04:24:02;;;;;;;21.92;12.23;;;;;;;;;;5013238;28;20350;-69
2021/07/22 04:26:27;;;;;;;20.02;11.20;;;;;;;;;;5015575;28;20021;-69
2021/07/22 04:28:52;;;;;;;20.17;11.57;;;;;;;;;;5011154;28;20028;-70
2021/07/22 04:31:18;;;;;;;20.38;11.80;;;;;;;;;;5007406;28;20018;-68
2021/07/22 04:33:43;;;;;;;18.30;11.13;;;;;;;;;;5023706;28;20029;-68
2021/07/22 04:36:08;;;;;;;17.13;11.05;;;;;;;;;;5013296;28;20416;-68
2021/07/22 04:38:39;;;;;;;18.05;11.27;;;;;;;;;;5028158;28;20032;-69
2021/07/22 04:41:04;;;;;;;19.13;11.63;;;;;;;;;;5010628;28;20025;-69
2021/07/22 04:43:30;;;;;;;17.37;10.37;;;;;;;;;;5007241;28;20385;-68
2021/07/22 04:45:55;;;;;;;14.77;9.73;;;;;;;;;;5010416;28;20375;-68
2021/07/22 04:48:20;;;;;;;16.10;9.88;;;;;;;;;;5025664;28;20053;-68
2021/07/22 04:50:45;;;;;;;16.25;9.73;;;;;;;;;;5008996;28;20010;-68
2021/07/22 04:53:11;;;;;;;16.65;9.85;;;;;;;;;;5015102;28;20285;-69
2021/07/22 04:55:36;;;;;;;17.17;9.65;;;;;;;;;;5018614;28;20084;-69
2021/07/22 04:58:02;;;;;;;16.20;9.60;;;;;;;;;;5015760;28;20021;-68
2021/07/22 05:00:27;;;;;;;14.48;9.23;;;;;;;;;;5021328;28;20327;-69
2021/07/22 05:02:57;;;;;;;16.90;9.63;;;;;;;;;;5007041;28;20026;-69
2021/07/22 05:05:22;;;;;;;14.65;9.10;;;;;;;;;;5011634;28;20397;-68
2021/07/22 05:07:48;;;;;;;15.95;9.48;;;;;;;;;;5018773;28;20030;-68
2021/07/22 05:10:13;;;;;;;15.97;10.27;;;;;;;;;;5015047;28;20502;-69
2021/07/22 05:12:38;;;;;;;18.02;9.30;;;;;;;;;;5010359;28;20275;-68
2021/07/22 05:15:03;;;;;;;14.73;9.63;;;;;;;;;;5014325;28;20661;-67
2021/07/22 05:17:29;;;;;;;15.57;9.98;;;;;;;;;;5023807;28;20233;-68
2021/07/22 05:19:54;;;;;;;18.20;11.10;;;;;;;;;;5024912;28;20111;-66
2021/07/22 05:22:21;;;;;;;17.13;8.85;;;;;;;;;;5019898;28;20349;-67
2021/07/22 05:24:46;;;;;;;16.00;9.25;;;;;;;;;;5018993;28;20097;-66
2021/07/22 05:27:15;;;;;;;17.50;10.10;;;;;;;;;;5017553;28;20017;-67
2021/07/22 05:29:40;;;;;;;15.90;9.55;;;;;;;;;;5024009;28;20639;-67
2021/07/22 05:32:06;;;;;;;14.63;10.07;;;;;;;;;;5018808;28;20026;-66
2021/07/22 05:34:31;;;;;;;15.65;9.85;;;;;;;;;;5009640;28;20052;-71
2021/07/22 05:36:56;;;;;;;15.02;8.93;;;;;;;;;;5013251;28;20116;-72
2021/07/22 05:39:21;;;;;;;20.00;10.10;;;;;;;;;;5011194;28;20037;-71
2021/07/22 05:41:47;;;;;;;20.37;9.80;;;;;;;;;;5010957;28;20273;-72
2021/07/22 05:44:12;;;;;;;16.40;9.23;;;;;;;;;;5007966;28;20379;-73
2021/07/22 05:46:37;;;;;;;15.73;10.27;;;;;;;;;;5015157;28;20029;-72
2021/07/22 05:49:02;;;;;;;19.63;10.18;;;;;;;;;;5013942;28;20727;-71
2021/07/22 05:51:31;;;;;;;16.25;11.10;;;;;;;;;;5015360;28;20022;-71
2021/07/22 05:53:56;;;;;;;17.08;10.82;;;;;;;;;;5018436;28;20044;-70
2021/07/22 05:56:21;;;;;;;17.45;10.65;;;;;;;;;;5009722;28;20470;-71
2021/07/22 05:58:46;;;;;;;16.67;10.38;;;;;;;;;;5016104;28;20100;-68
2021/07/22 06:01:11;;;;;;;18.10;9.75;;;;;;;;;;5017255;28;20493;-71
2021/07/22 06:03:37;;;;;;;21.20;10.75;;;;;;;;;;5011143;28;20425;-73
2021/07/22 06:06:05;;;;;;;16.80;9.87;;;;;;;;;;5017722;28;20530;-72
2021/07/22 06:08:30;;;;;;;17.33;10.50;;;;;;;;;;5026453;28;20022;-72
2021/07/22 06:10:56;;;;;;;13.83;9.40;;;;;;;;;;5029893;28;20108;-72
2021/07/22 06:13:21;;;;;;;15.38;9.25;;;;;;;;;;5014175;28;20807;-72
2021/07/22 06:15:46;;;;;;;15.73;9.53;;;;;;;;;;5012955;28;20506;-70
2021/07/22 06:18:11;;;;;;;17.48;10.05;;;;;;;;;;5023035;28;20029;-70
2021/07/22 06:20:39;;;;;;;18.13;10.17;;;;;;;;;;5016067;28;20036;-71
2021/07/22 06:23:04;;;;;;;19.27;10.40;;;;;;;;;;5026777;28;20515;-71
2021/07/22 06:25:29;;;;;;;15.77;10.07;;;;;;;;;;5019101;28;20053;-71
2021/07/22 06:27:54;;;;;;;16.23;9.50;;;;;;;;;;5026695;28;20296;-72
2021/07/22 06:30:20;;;;;;;14.35;9.57;;;;;;;;;;5017685;28;20762;-71
2021/07/22 06:32:45;;;;;;;16.05;9.48;;;;;;;;;;5015522;28;20026;-71
2021/07/22 06:35:10;;;;;;;16.67;10.47;;;;;;;;;;5010256;28;20049;-72
2021/07/22 06:37:43;;;;;;;14.13;9.50;;;;;;;;;;5023351;28;20026;-71
2021/07/22 06:40:08;;;;;;;17.95;11.00;;;;;;;;;;5012096;28;20029;-71
2021/07/22 06:42:33;;;;;;;14.80;9.93;;;;;;;;;;5012681;28;20042;-71
2021/07/22 06:44:58;;;;;;;14.37;8.93;;;;;;;;;;5010360;28;20515;-72
2021/07/22 06:47:23;;;;;;;17.83;9.97;;;;;;;;;;5011401;28;20068;-71
2021/07/22 06:49:49;;;;;;;15.00;10.77;;;;;;;;;;5010085;28;21015;-72
2021/07/22 06:52:14;;;;;;;14.03;9.43;;;;;;;;;;5010132;28;20065;-71
2021/07/22 06:54:39;;;;;;;12.70;9.23;;;;;;;;;;5016937;28;20480;-72
2021/07/22 06:57:04;;;;;;;17.97;10.67;;;;;;;;;;5015456;28;20087;-72
2021/07/22 06:59:29;;;;;;;13.57;9.65;;;;;;;;;;5024804;28;20280;-71
2021/07/22 07:01:54;;;;;;;14.70;9.53;;;;;;;;;;5015820;28;20033;-72
2021/07/22 07:04:20;;;;;;;14.30;9.40;;;;;;;;;;5017519;28;20685;-71
2021/07/22 07:06:45;;;;;;;13.57;8.83;;;;;;;;;;5027881;28;20033;-72
2021/07/22 07:09:10;;;;;;;12.73;9.00;;;;;;;;;;5024483;28;20444;-71
2021/07/22 07:11:35;;;;;;;15.47;9.40;;;;;;;;;;5023400;28;20058;-72
2021/07/22 07:14:00;;;;;;;15.80;9.60;;;;;;;;;;5016433;28;20095;-73
2021/07/22 07:16:25;;;;;;;13.40;9.00;;;;;;;;;;5011847;28;20036;-66
2021/07/22 07:18:50;;;;;;;12.88;9.70;;;;;;;;;;5012962;28;20041;-66
2021/07/22 07:21:16;;;;;;;15.33;10.10;;;;;;;;;;5018749;28;20385;-66
2021/07/22 07:23:41;;;;;;;14.98;9.90;;;;;;;;;;5013254;28;20395;-66
2021/07/22 07:26:10;;;;;;;16.13;9.45;;;;;;;;;;5009520;28;20025;-66
2021/07/22 07:28:35;;;;;;;16.98;9.70;;;;;;;;;;5014898;28;20021;-65
2021/07/22 07:31:01;;;;;;;14.25;9.18;;;;;;;;;;5009207;28;20406;-65
2021/07/22 07:33:28;;;;;;;15.47;10.20;;;;;;;;;;5009883;28;20481;-66
2021/07/22 07:35:54;;;;;;;16.25;10.10;;;;;;;;;;5009197;28;20932;-65
2021/07/22 07:38:19;;;;;;;20.15;11.52;;;;;;;;;;5017159;28;20021;-65
2021/07/22 07:40:44;;;;;;;19.00;11.50;;;;;;;;;;5021996;28;20037;-65
2021/07/22 07:43:17;;;;;;;19.20;11.43;;;;;;;;;;5016261;28;20073;-66
2021/07/22 07:45:42;;;;;;;15.90;9.25;;;;;;;;;;5020369;28;20345;-65
2021/07/22 07:48:07;;;;;;;18.80;9.75;;;;;;;;;;5016776;28;20017;-65
2021/07/22 07:50:32;;;;;;;23.00;11.13;;;;;;;;;;5028305;28;20084;-66
2021/07/22 07:52:57;;;;;;;16.90;10.32;;;;;;;;;;5028014;28;20257;-66
2021/07/22 07:55:23;;;;;;;16.97;9.53;;;;;;;;;;5028402;28;20375;-66
2021/07/22 07:57:48;;;;;;;17.13;9.07;;;;;;;;;;5017642;28;20297;-65
2021/07/22 08:00:13;;;;;;;20.10;9.67;;;;;;;;;;5024959;28;20667;-66
2021/07/22 08:02:38;;;;;;;13.55;8.65;;;;;;;;;;5028530;28;20284;-66
2021/07/22 08:05:04;;;;;;;13.32;9.02;;;;;;;;;;5028301;28;20029;-66
2021/07/22 08:07:29;;;;;;;16.02;9.18;;;;;;;;;;5017141;28;20461;-65
2021/07/22 08:09:54;;;;;;;15.57;9.23;;;;;;;;;;5009076;28;20022;-66
2021/07/22 08:12:20;;;;;;;17.33;9.53;;;;;;;;;;5026191;28;20099;-65
2021/07/22 08:14:45;;;;;;;18.23;9.35;;;;;;;;;;5011434;28;20265;-66
2021/07/22 08:17:14;;;;;;;15.80;9.23;;;;;;;;;;5009569;28;20025;-66
2021/07/22 08:19:40;;;;;;;14.93;9.05;;;;;;;;;;5010932;28;20539;-66
2021/07/22 08:22:05;;;;;;;17.70;9.20;;;;;;;;;;5018730;28;20030;-65
2021/07/22 08:24:30;;;;;;;15.37;8.40;;;;;;;;;;5009551;28;20284;-66
2021/07/22 08:26:55;;;;;;;14.13;8.77;;;;;;;;;;5012457;28;21043;-66
2021/07/22 08:29:20;;;;;;;15.70;8.68;;;;;;;;;;5021421;28;20041;-66
2021/07/22 08:31:45;;;;;;;15.87;9.03;;;;;;;;;;5020389;28;20453;-66
2021/07/22 08:34:14;;;;;;;12.97;8.77;;;;;;;;;;5020850;28;20367;-65
2021/07/22 08:36:39;;;;;;;13.90;9.20;;;;;;;;;;5016412;28;20029;-65
2021/07/22 08:39:04;;;;;;;15.17;8.83;;;;;;;;;;5020420;28;20033;-66
2021/07/22 08:41:30;;;;;;;17.53;9.50;;;;;;;;;;5027652;28;20347;-65
2021/07/22 08:43:56;;;;;;;12.33;7.30;;;;;;;;;;5031393;28;20652;-65
2021/07/22 08:46:21;;;;;;;12.65;7.40;;;;;;;;;;5012748;28;20018;-67
2021/07/22 08:48:46;;;;;;;14.73;7.90;;;;;;;;;;5020831;28;20113;-66
2021/07/22 08:51:11;;;;;;;14.02;8.05;;;;;;;;;;5019302;28;20256;-65
2021/07/22 08:53:36;;;;;;;12.43;7.90;;;;;;;;;;5032070;28;20469;-65
2021/07/22 08:56:05;;;;;;;11.67;7.60;;;;;;;;;;5027082;28;20253;-65
2021/07/22 08:58:30;;;;;;;13.88;8.27;;;;;;;;;;5016900;28;20283;-65
2021/07/22 09:00:58;;;;;;;13.82;8.95;;;;;;;;;;5016312;28;20018;-64
2021/07/22 09:03:23;;;;;;;11.93;7.32;;;;;;;;;;5012333;28;20030;-66
2021/07/22 09:05:48;;;;;;;14.17;7.80;;;;;;;;;;5012680;28;20030;-65
2021/07/22 09:08:13;;;;;;;10.93;7.53;;;;;;;;;;5018509;28;20751;-66
2021/07/22 09:10:38;;;;;;;14.23;8.05;;;;;;;;;;5019264;28;20111;-65
2021/07/22 09:13:04;;;;;;;14.03;8.17;;;;;;;;;;5025110;28;20489;-66
2021/07/22 09:15:31;;;;;;;11.88;7.60;;;;;;;;;;5019150;28;20268;-66
2021/07/22 09:17:57;;;;;;;12.73;7.47;;;;;;;;;;5012413;28;20489;-65
2021/07/22 09:20:26;;;;;;;10.82;7.07;;;;;;;;;;5020528;28;20022;-64
2021/07/22 09:22:51;;;;;;;11.05;7.03;;;;;;;;;;5025410;28;20034;-66
2021/07/22 09:25:18;;;;;;;12.20;7.60;;;;;;;;;;5021868;28;20037;-66
2021/07/22 09:27:44;;;;;;;11.40;7.60;;;;;;;;;;5026709;28;20346;-65
2021/07/22 09:30:15;;;;;;;17.08;8.25;;;;;;;;;;5019583;28;20144;-65
2021/07/22 09:32:41;;;;;;;13.93;8.30;;;;;;;;;;5030492;28;20018;-66
2021/07/22 09:35:12;;;;;;;11.73;7.10;;;;;;;;;;5029824;28;20105;-66
2021/07/22 09:37:42;;;;;;;13.13;6.88;;;;;;;;;;5029207;28;20017;-66
2021/07/22 09:40:11;;;;;;;11.95;7.68;;;;;;;;;;5013427;28;20030;-65
2021/07/22 09:42:40;;;;;;;15.18;9.38;;;;;;;;;;5018132;28;20519;-66
2021/07/22 09:45:15;;;;;;;15.63;7.95;;;;;;;;;;5011484;28;20049;-66
2021/07/22 09:47:40;;;;;;;12.45;7.50;;;;;;;;;;5027951;28;20033;-65
2021/07/22 09:50:14;;;;;;;12.03;7.90;;;;;;;;;;5024093;28;20039;-66
2021/07/22 09:52:39;;;;;;;11.77;7.88;;;;;;;;;;5020357;28;20300;-66
2021/07/22 09:55:22;;;;;;;14.05;8.43;;;;;;;;;;5021013;28;20037;-65
2021/07/22 09:57:48;;;;;;;13.13;7.55;;;;;;;;;;5012242;28;20488;-66
2021/07/22 10:00:13;;;;;;;15.15;7.65;;;;;;;;;;5024484;28;20441;-65
2021/07/22 10:02:40;;;;;;;13.50;8.93;;;;;;;;;;5015677;28;20064;-67
2021/07/22 10:05:05;;;;;;;13.23;7.88;;;;;;;;;;5020401;28;20026;-67
2021/07/22 10:07:31;;;;;;;19.02;9.40;;;;;;;;;;5028396;28;20024;-65
2021/07/22 10:10:01;;;;;;;17.80;10.50;;;;;;;;;;5020174;28;20033;-66
2021/07/22 10:12:26;;;;;;;;;;;;;;;;;;5022582;28;20592;-66
2021/07/22 10:14:55;;;;;;;16.95;11.18;;;;;;;;;;5030033;28;20011;-66
2021/07/22 10:17:29;;;;;;;11.80;7.93;;;;;;;;;;5023472;28;20102;-66
2021/07/22 10:19:55;;;;;;;15.55;9.73;;;;;;;;;;5025512;28;20079;-65
2021/07/22 10:22:21;;;;;;;14.32;8.80;;;;;;;;;;5021975;28;20087;-67
2021/07/22 10:24:48;;;;;;;13.18;9.10;;;;;;;;;;5019668;28;20183;-66
2021/07/22 10:27:13;;;;;;;14.00;8.10;;;;;;;;;;5012801;28;20378;-66
2021/07/22 10:29:38;;;;;;;13.10;7.90;;;;;;;;;;5011185;28;20025;-66
2021/07/22 10:32:03;;;;;;;12.65;8.05;;;;;;;;;;5011253;28;20300;-66
2021/07/22 10:34:32;;;;;;;13.85;7.47;;;;;;;;;;5014660;28;20056;-66
2021/07/22 10:36:57;;;;;;;15.43;8.63;;;;;;;;;;5010856;28;20169;-66
2021/07/22 10:39:41;;;;;;;15.20;8.27;;;;;;;;;;5013004;28;20545;-66
2021/07/22 10:42:26;;;;;;;14.60;8.85;;;;;;;;;;5012167;28;20045;-67
2021/07/22 10:44:51;;;;;;;15.20;8.10;;;;;;;;;;5003948;28;20486;-66
2021/07/22 10:47:16;;;;;;;15.57;8.60;;;;;;;;;;5016686;28;20032;-66
2021/07/22 10:49:42;;;;;;;14.52;7.85;;;;;;;;;;5015663;28;20279;-65
2021/07/22 10:52:08;;;;;;;16.92;7.70;;;;;;;;;;5029239;28;20032;-65
2021/07/22 10:54:49;;;;;;;16.20;8.85;;;;;;;;;;5021488;28;20049;-66
2021/07/22 10:57:34;;;;;;;14.40;9.05;;;;;;;;;;5023753;28;20029;-65
2021/07/22 10:59:59;;;;;;;12.05;7.60;;;;;;;;;;5019648;28;20034;-66
2021/07/22 11:02:40;;;;;;;13.63;8.07;;;;;;;;;;5018811;28;20029;-65
2021/07/22 11:05:06;;;;;;;12.85;8.80;;;;;;;;;;5021564;28;20037;-66
2021/07/22 11:07:31;;;;;;;12.50;8.45;;;;;;;;;;5018545;28;20030;-66
2021/07/22 11:09:58;;;;;;;14.53;8.40;;;;;;;;;;5029233;28;20017;-65
2021/07/22 11:12:32;;;;;;;14.40;8.10;;;;;;;;;;5012644;28;20253;-64
2021/07/22 11:15:02;;;;;;;12.98;8.18;;;;;;;;;;5016415;28;20041;-65
2021/07/22 11:17:31;;;;;;;13.05;8.90;;;;;;;;;;5009719;28;20160;-65
2021/07/22 11:20:15;;;;;;;15.80;9.40;;;;;;;;;;5016249;28;20033;-66
2021/07/22 11:22:40;;;;;;;13.15;8.00;;;;;;;;;;5009777;28;20025;-66
2021/07/22 11:25:06;;;;;;;13.87;8.57;;;;;;;;;;5007333;28;20037;-65
2021/07/22 11:27:31;;;;;;;14.85;8.75;;;;;;;;;;5015610;28;20253;-66
2021/07/22 11:30:29;;;;;;;13.17;7.97;;;;;;;;;;5014973;28;20051;-65
2021/07/22 11:33:13;;;;;;;13.35;9.07;;;;;;;;;;4996829;28;20489;-66
2021/07/22 11:35:38;;;;;;;11.95;8.40;;;;;;;;;;4993502;28;20058;-66
2021/07/22 11:38:03;;;;;;;13.60;8.80;;;;;;;;;;4987201;28;20073;-66
2021/07/22 11:40:28;;;;;;;11.98;7.82;;;;;;;;;;4987423;28;21067;-65
2021/07/22 11:42:54;;;;;;;14.90;8.13;;;;;;;;;;4993330;28;20069;-67
2021/07/22 11:45:19;;;;;;;14.18;7.97;;;;;;;;;;4987158;28;20879;-66
2021/07/22 11:47:44;;;;;;;15.73;9.77;;;;;;;;;;4993646;28;20045;-66
2021/07/22 11:50:09;;;;;;;13.73;7.82;;;;;;;;;;4993588;28;20284;-66
2021/07/22 11:52:35;;;;;;;13.63;8.07;;;;;;;;;;4991821;28;20021;-65
2021/07/22 11:55:08;;;;;;;14.75;8.13;;;;;;;;;;4989860;28;20023;-66
2021/07/22 11:57:36;;;;;;;14.40;8.98;;;;;;;;;;4989103;28;20040;-66
2021/07/22 12:00:14;;;;;;;14.95;8.43;;;;;;;;;;4991240;28;20351;-66
2021/07/22 12:02:43;;;;;;;14.82;7.95;;;;;;;;;;4990146;28;20068;-67
2021/07/22 12:05:09;;;;;;;12.95;8.73;;;;;;;;;;4990473;28;20038;-66
2021/07/22 12:07:34;;;;;;;13.07;8.00;;;;;;;;;;4992582;28;20120;-67
2021/07/22 12:09:59;;;;;;;16.10;8.43;;;;;;;;;;5005241;28;20053;-66
2021/07/22 12:12:25;;;;;;;12.05;7.70;;;;;;;;;;5005819;28;20022;-66
2021/07/22 12:14:50;;;;;;;13.07;7.78;;;;;;;;;;4998134;28;20021;-66
2021/07/22 12:17:15;;;;;;;12.40;7.60;;;;;;;;;;5018444;28;20018;-66
2021/07/22 12:19:46;;;;;;;15.18;7.78;;;;;;;;;;5016271;28;20033;-65
2021/07/22 12:22:30;;;;;;;13.98;8.35;;;;;;;;;;5016140;28;20420;-65
2021/07/22 12:25:18;;;;;;;16.90;10.40;;;;;;;;;;5011360;28;20432;-66
2021/07/22 12:27:51;;;;;;;16.42;10.55;;;;;;;;;;5012349;28;20085;-66
2021/07/22 12:30:27;;;;;;;14.23;8.05;;;;;;;;;;5013032;28;20037;-66
2021/07/22 12:33:03;;;;;;;14.27;9.75;;;;;;;;;;5027252;28;20034;-67
2021/07/22 12:35:35;;;;;;;15.77;9.27;;;;;;;;;;5022461;28;20026;-65
2021/07/22 12:38:04;;;;;;;13.75;8.02;;;;;;;;;;5019643;28;20080;-65
2021/07/22 12:40:35;;;;;;;14.63;9.50;;;;;;;;;;5023343;28;20529;-66
2021/07/22 12:43:01;;;;;;;11.93;7.65;;;;;;;;;;5020643;28;20125;-66
2021/07/22 12:45:26;;;;;;;17.10;8.65;;;;;;;;;;5012609;28;20137;-66
2021/07/22 12:47:52;;;;;;;13.63;8.35;;;;;;;;;;5016469;28;20836;-66
2021/07/22 12:50:31;;;;;;;14.30;8.10;;;;;;;;;;5031786;28;20032;-66
2021/07/22 12:52:59;;;;;;;14.98;8.13;;;;;;;;;;5012408;28;20032;-66
2021/07/22 12:55:29;;;;;;;13.13;7.97;;;;;;;;;;5029414;28;20112;-65
2021/07/22 12:57:54;;;;;;;;;;;;;;;;;;5031807;28;20029;-65
2021/07/22 13:00:20;;;;;;;15.77;8.38;;;;;;;;;;5020152;28;19916;-66
2021/07/22 13:02:58;;;;;;;13.77;8.73;;;;;;;;;;5030049;28;20021;-66
2021/07/22 13:05:23;;;;;;;13.25;8.13;;;;;;;;;;5012711;28;20034;-67
2021/07/22 13:07:49;;;;;;;15.00;7.70;;;;;;;;;;5012395;28;20030;-65
2021/07/22 13:10:14;;;;;;;14.27;7.70;;;;;;;;;;5012818;28;20036;-66
2021/07/22 13:12:40;;;;;;;17.45;8.15;;;;;;;;;;5012067;28;20018;-67
2021/07/22 13:15:05;;;;;;;14.40;8.47;;;;;;;;;;5013569;28;20026;-66
2021/07/22 13:17:30;;;;;;;15.02;9.73;;;;;;;;;;5011751;28;20254;-66
2021/07/22 13:19:55;;;;;;;13.37;8.30;;;;;;;;;;5016012;28;20484;-65
2021/07/22 13:22:21;;;;;;;13.13;8.30;;;;;;;;;;5018556;28;20032;-64
2021/07/22 13:24:49;;;;;;;12.70;7.97;;;;;;;;;;5012261;28;20029;-64
2021/07/22 13:27:14;;;;;;;17.42;9.90;;;;;;;;;;5017604;28;20592;-65
2021/07/22 13:29:40;;;;;;;15.07;7.60;;;;;;;;;;5028208;28;20048;-64
2021/07/22 13:32:07;;;;;;;16.70;8.53;;;;;;;;;;5027140;28;20022;-66
2021/07/22 13:34:33;;;;;;;12.27;7.95;;;;;;;;;;5027297;28;20026;-65
2021/07/22 13:36:58;;;;;;;16.80;8.98;;;;;;;;;;5011999;28;20026;-64
2021/07/22 13:39:23;;;;;;;19.97;8.80;;;;;;;;;;5010973;28;20105;-66
2021/07/22 13:41:48;;;;;;;16.67;7.47;;;;;;;;;;5015674;28;20287;-65
2021/07/22 13:44:13;;;;;;;12.75;7.75;;;;;;;;;;5010638;28;20128;-66
2021/07/22 13:46:38;;;;;;;14.17;9.00;;;;;;;;;;5020369;28;20108;-64
2021/07/22 13:49:04;;;;;;;12.57;8.73;;;;;;;;;;5024038;28;20762;-66
2021/07/22 13:51:29;;;;;;;14.53;9.13;;;;;;;;;;5011340;28;20116;-66
2021/07/22 13:53:54;;;;;;;13.38;8.52;;;;;;;;;;5017312;28;20748;-66
2021/07/22 13:56:20;;;;;;;15.80;8.65;;;;;;;;;;5008960;28;20083;-65
2021/07/22 13:58:45;;;;;;;13.10;7.63;;;;;;;;;;5011070;28;20024;-66
2021/07/22 14:01:10;;;;;;;12.53;7.70;;;;;;;;;;5014856;28;20321;-66
2021/07/22 14:03:35;;;;;;;12.52;7.45;;;;;;;;;;5013835;28;20288;-65
2021/07/22 14:06:00;;;;;;;11.80;7.88;;;;;;;;;;5017093;28;20063;-65
2021/07/22 14:08:26;;;;;;;12.93;8.57;;;;;;;;;;5010865;28;20141;-64
2021/07/22 14:10:51;;;;;;;11.33;7.83;;;;;;;;;;5010816;28;20288;-65
2021/07/22 14:13:16;;;;;;;16.37;7.90;;;;;;;;;;5012137;28;20033;-65
2021/07/22 14:15:41;;;;;;;13.00;8.60;;;;;;;;;;5012512;28;20774;-64
2021/07/22 14:18:06;;;;;;;12.88;7.38;;;;;;;;;;5015375;28;20276;-64
2021/07/22 14:20:32;;;;;;;12.13;7.78;;;;;;;;;;5015541;28;20100;-64
2021/07/22 14:22:57;;;;;;;12.63;7.37;;;;;;;;;;5020230;28;20037;-64